sensor_id;sensor_type;location;lat;lon;timestamp;P1;durP1;ratioP1;P2;durP2;ratioP2
68192;SDS011;55012;47.562;18.414;2024-01-27T00:01:01;6.20;;;2.58;;
68192;SDS011;55012;47.562;18.414;2024-01-27T00:03:27;4.72;;;2.63;;
68192;SDS011;55012;47.562;18.414;2024-01-27T00:05:52;8.55;;;3.38;;
68192;SDS011;55012;47.562;18.414;2024-01-27T00:08:17;5.60;;;2.70;;
68192;SDS011;55012;47.562;18.414;2024-01-27T00:10:43;6.10;;;2.70;;
68192;SDS011;55012;47.562;18.414;2024-01-27T00:13:11;4.35;;;2.40;;
68192;SDS011;55012;47.562;18.414;2024-01-27T00:15:36;3.90;;;2.50;;
68192;SDS011;55012;47.562;18.414;2024-01-27T00:18:01;8.85;;;3.25;;
68192;SDS011;55012;47.562;18.414;2024-01-27T00:20:27;5.93;;;2.50;;
68192;SDS011;55012;47.562;18.414;2024-01-27T00:22:52;6.75;;;2.42;;
68192;SDS011;55012;47.562;18.414;2024-01-27T00:25:18;4.03;;;2.45;;
68192;SDS011;55012;47.562;18.414;2024-01-27T00:27:43;7.10;;;2.20;;
68192;SDS011;55012;47.562;18.414;2024-01-27T00:30:08;5.43;;;2.45;;
68192;SDS011;55012;47.562;18.414;2024-01-27T00:32:36;7.25;;;3.10;;
68192;SDS011;55012;47.562;18.414;2024-01-27T00:35:02;6.20;;;2.60;;
68192;SDS011;55012;47.562;18.414;2024-01-27T00:37:28;6.57;;;2.40;;
68192;SDS011;55012;47.562;18.414;2024-01-27T00:39:53;4.55;;;2.65;;
68192;SDS011;55012;47.562;18.414;2024-01-27T00:42:19;5.03;;;2.38;;
68192;SDS011;55012;47.562;18.414;2024-01-27T00:44:48;5.07;;;2.42;;
68192;SDS011;55012;47.562;18.414;2024-01-27T00:47:14;4.90;;;2.50;;
68192;SDS011;55012;47.562;18.414;2024-01-27T00:49:40;7.47;;;2.42;;
68192;SDS011;55012;47.562;18.414;2024-01-27T00:52:05;4.10;;;2.05;;
68192;SDS011;55012;47.562;18.414;2024-01-27T00:54:30;4.60;;;2.10;;
68192;SDS011;55012;47.562;18.414;2024-01-27T00:56:56;4.25;;;2.28;;
68192;SDS011;55012;47.562;18.414;2024-01-27T00:59:21;4.63;;;2.00;;
68192;SDS011;55012;47.562;18.414;2024-01-27T01:01:47;2.58;;;1.70;;
68192;SDS011;55012;47.562;18.414;2024-01-27T01:04:12;3.17;;;1.95;;
68192;SDS011;55012;47.562;18.414;2024-01-27T01:06:39;3.92;;;1.52;;
68192;SDS011;55012;47.562;18.414;2024-01-27T01:09:05;2.05;;;1.48;;
68192;SDS011;55012;47.562;18.414;2024-01-27T01:11:30;3.60;;;1.70;;
68192;SDS011;55012;47.562;18.414;2024-01-27T01:13:56;5.85;;;1.63;;
68192;SDS011;55012;47.562;18.414;2024-01-27T01:16:21;2.90;;;1.67;;
68192;SDS011;55012;47.562;18.414;2024-01-27T01:18:47;3.58;;;1.38;;
68192;SDS011;55012;47.562;18.414;2024-01-27T01:21:12;3.70;;;1.85;;
68192;SDS011;55012;47.562;18.414;2024-01-27T01:23:37;4.20;;;1.63;;
68192;SDS011;55012;47.562;18.414;2024-01-27T01:26:03;3.00;;;1.30;;
68192;SDS011;55012;47.562;18.414;2024-01-27T01:28:28;3.42;;;1.50;;
68192;SDS011;55012;47.562;18.414;2024-01-27T01:30:54;2.58;;;1.30;;
68192;SDS011;55012;47.562;18.414;2024-01-27T01:33:19;3.75;;;1.25;;
68192;SDS011;55012;47.562;18.414;2024-01-27T01:35:45;1.98;;;1.13;;
68192;SDS011;55012;47.562;18.414;2024-01-27T01:38:10;3.22;;;1.10;;
68192;SDS011;55012;47.562;18.414;2024-01-27T01:40:36;2.25;;;1.20;;
68192;SDS011;55012;47.562;18.414;2024-01-27T01:43:01;3.13;;;1.25;;
68192;SDS011;55012;47.562;18.414;2024-01-27T01:45:28;2.42;;;1.20;;
68192;SDS011;55012;47.562;18.414;2024-01-27T01:47:53;2.13;;;1.10;;
68192;SDS011;55012;47.562;18.414;2024-01-27T01:50:19;2.03;;;1.10;;
68192;SDS011;55012;47.562;18.414;2024-01-27T01:52:46;4.35;;;1.20;;
68192;SDS011;55012;47.562;18.414;2024-01-27T01:55:14;4.25;;;0.98;;
68192;SDS011;55012;47.562;18.414;2024-01-27T01:57:40;1.83;;;1.10;;
68192;SDS011;55012;47.562;18.414;2024-01-27T02:00:05;1.65;;;1.08;;
68192;SDS011;55012;47.562;18.414;2024-01-27T02:02:31;2.97;;;1.20;;
68192;SDS011;55012;47.562;18.414;2024-01-27T02:04:56;1.98;;;1.20;;
68192;SDS011;55012;47.562;18.414;2024-01-27T02:07:22;4.18;;;1.38;;
68192;SDS011;55012;47.562;18.414;2024-01-27T02:09:47;2.22;;;1.10;;
68192;SDS011;55012;47.562;18.414;2024-01-27T02:12:12;1.02;;;0.75;;
68192;SDS011;55012;47.562;18.414;2024-01-27T02:14:38;2.47;;;1.00;;
68192;SDS011;55012;47.562;18.414;2024-01-27T02:17:03;1.40;;;1.00;;
68192;SDS011;55012;47.562;18.414;2024-01-27T02:19:29;2.85;;;1.35;;
68192;SDS011;55012;47.562;18.414;2024-01-27T02:21:54;1.63;;;0.90;;
68192;SDS011;55012;47.562;18.414;2024-01-27T02:24:20;1.38;;;0.80;;
68192;SDS011;55012;47.562;18.414;2024-01-27T02:26:45;1.92;;;1.00;;
68192;SDS011;55012;47.562;18.414;2024-01-27T02:29:10;2.78;;;1.38;;
68192;SDS011;55012;47.562;18.414;2024-01-27T02:31:36;2.13;;;1.10;;
68192;SDS011;55012;47.562;18.414;2024-01-27T02:34:01;2.13;;;1.20;;
68192;SDS011;55012;47.562;18.414;2024-01-27T02:36:27;2.80;;;1.30;;
68192;SDS011;55012;47.562;18.414;2024-01-27T02:38:52;1.83;;;1.20;;
68192;SDS011;55012;47.562;18.414;2024-01-27T02:41:17;2.58;;;1.30;;
68192;SDS011;55012;47.562;18.414;2024-01-27T02:43:43;1.75;;;1.10;;
68192;SDS011;55012;47.562;18.414;2024-01-27T02:46:09;2.72;;;1.27;;
68192;SDS011;55012;47.562;18.414;2024-01-27T02:48:36;3.10;;;1.48;;
68192;SDS011;55012;47.562;18.414;2024-01-27T02:51:06;2.88;;;1.40;;
68192;SDS011;55012;47.562;18.414;2024-01-27T02:53:31;3.03;;;1.30;;
68192;SDS011;55012;47.562;18.414;2024-01-27T02:55:56;2.65;;;1.40;;
68192;SDS011;55012;47.562;18.414;2024-01-27T02:58:22;3.90;;;1.40;;
68192;SDS011;55012;47.562;18.414;2024-01-27T03:00:47;2.28;;;1.30;;
68192;SDS011;55012;47.562;18.414;2024-01-27T03:03:12;2.38;;;1.30;;
68192;SDS011;55012;47.562;18.414;2024-01-27T03:05:38;3.45;;;1.80;;
68192;SDS011;55012;47.562;18.414;2024-01-27T03:08:03;3.58;;;1.88;;
68192;SDS011;55012;47.562;18.414;2024-01-27T03:10:29;3.15;;;1.40;;
68192;SDS011;55012;47.562;18.414;2024-01-27T03:12:56;3.55;;;1.40;;
68192;SDS011;55012;47.562;18.414;2024-01-27T03:15:21;3.28;;;1.45;;
68192;SDS011;55012;47.562;18.414;2024-01-27T03:17:46;2.40;;;1.33;;
68192;SDS011;55012;47.562;18.414;2024-01-27T03:20:12;4.97;;;1.50;;
68192;SDS011;55012;47.562;18.414;2024-01-27T03:22:37;2.67;;;1.48;;
68192;SDS011;55012;47.562;18.414;2024-01-27T03:25:03;2.50;;;1.40;;
68192;SDS011;55012;47.562;18.414;2024-01-27T03:27:28;2.22;;;1.23;;
68192;SDS011;55012;47.562;18.414;2024-01-27T03:29:53;2.25;;;1.27;;
68192;SDS011;55012;47.562;18.414;2024-01-27T03:32:20;3.45;;;1.60;;
68192;SDS011;55012;47.562;18.414;2024-01-27T03:34:45;3.75;;;1.27;;
68192;SDS011;55012;47.562;18.414;2024-01-27T03:37:11;2.67;;;1.50;;
68192;SDS011;55012;47.562;18.414;2024-01-27T03:39:36;2.33;;;1.20;;
68192;SDS011;55012;47.562;18.414;2024-01-27T03:42:02;2.17;;;1.33;;
68192;SDS011;55012;47.562;18.414;2024-01-27T03:44:27;3.83;;;1.40;;
68192;SDS011;55012;47.562;18.414;2024-01-27T03:46:52;3.35;;;1.40;;
68192;SDS011;55012;47.562;18.414;2024-01-27T03:49:18;5.43;;;1.48;;
68192;SDS011;55012;47.562;18.414;2024-01-27T03:51:43;2.03;;;1.15;;
68192;SDS011;55012;47.562;18.414;2024-01-27T03:54:08;3.22;;;1.40;;
68192;SDS011;55012;47.562;18.414;2024-01-27T03:56:34;5.65;;;1.40;;
68192;SDS011;55012;47.562;18.414;2024-01-27T03:58:59;1.92;;;1.30;;
68192;SDS011;55012;47.562;18.414;2024-01-27T04:01:24;1.67;;;1.10;;
68192;SDS011;55012;47.562;18.414;2024-01-27T04:03:50;3.90;;;1.25;;
68192;SDS011;55012;47.562;18.414;2024-01-27T04:06:15;2.63;;;1.40;;
68192;SDS011;55012;47.562;18.414;2024-01-27T04:08:40;1.90;;;1.23;;
68192;SDS011;55012;47.562;18.414;2024-01-27T04:11:08;2.83;;;1.20;;
68192;SDS011;55012;47.562;18.414;2024-01-27T04:13:35;3.60;;;1.20;;
68192;SDS011;55012;47.562;18.414;2024-01-27T04:16:01;3.80;;;1.30;;
68192;SDS011;55012;47.562;18.414;2024-01-27T04:18:26;2.70;;;1.00;;
68192;SDS011;55012;47.562;18.414;2024-01-27T04:20:51;2.28;;;1.10;;
68192;SDS011;55012;47.562;18.414;2024-01-27T04:23:17;6.78;;;1.25;;
68192;SDS011;55012;47.562;18.414;2024-01-27T04:25:43;2.25;;;1.23;;
68192;SDS011;55012;47.562;18.414;2024-01-27T04:28:08;2.38;;;1.08;;
68192;SDS011;55012;47.562;18.414;2024-01-27T04:30:36;2.92;;;1.40;;
68192;SDS011;55012;47.562;18.414;2024-01-27T04:33:02;2.60;;;1.15;;
68192;SDS011;55012;47.562;18.414;2024-01-27T04:35:27;2.60;;;1.20;;
68192;SDS011;55012;47.562;18.414;2024-01-27T04:37:53;2.88;;;1.13;;
68192;SDS011;55012;47.562;18.414;2024-01-27T04:40:18;1.95;;;1.13;;
68192;SDS011;55012;47.562;18.414;2024-01-27T04:42:44;4.15;;;1.38;;
68192;SDS011;55012;47.562;18.414;2024-01-27T04:45:09;2.03;;;1.10;;
68192;SDS011;55012;47.562;18.414;2024-01-27T04:47:34;3.10;;;1.10;;
68192;SDS011;55012;47.562;18.414;2024-01-27T04:50:00;3.25;;;1.20;;
68192;SDS011;55012;47.562;18.414;2024-01-27T04:52:25;2.47;;;1.30;;
68192;SDS011;55012;47.562;18.414;2024-01-27T04:54:53;3.03;;;1.50;;
68192;SDS011;55012;47.562;18.414;2024-01-27T04:57:18;2.60;;;1.25;;
68192;SDS011;55012;47.562;18.414;2024-01-27T04:59:44;2.63;;;1.17;;
68192;SDS011;55012;47.562;18.414;2024-01-27T05:02:10;3.38;;;1.40;;
68192;SDS011;55012;47.562;18.414;2024-01-27T05:04:37;6.15;;;1.10;;
68192;SDS011;55012;47.562;18.414;2024-01-27T05:07:02;4.15;;;1.23;;
68192;SDS011;55012;47.562;18.414;2024-01-27T05:09:28;2.35;;;1.30;;
68192;SDS011;55012;47.562;18.414;2024-01-27T05:11:53;4.68;;;1.25;;
68192;SDS011;55012;47.562;18.414;2024-01-27T05:14:18;4.63;;;1.42;;
68192;SDS011;55012;47.562;18.414;2024-01-27T05:16:44;2.08;;;1.10;;
68192;SDS011;55012;47.562;18.414;2024-01-27T05:19:10;4.63;;;1.40;;
68192;SDS011;55012;47.562;18.414;2024-01-27T05:21:35;3.88;;;1.27;;
68192;SDS011;55012;47.562;18.414;2024-01-27T05:24:01;5.75;;;1.40;;
68192;SDS011;55012;47.562;18.414;2024-01-27T05:26:26;2.15;;;1.27;;
68192;SDS011;55012;47.562;18.414;2024-01-27T05:28:52;3.00;;;1.52;;
68192;SDS011;55012;47.562;18.414;2024-01-27T05:31:18;4.22;;;1.33;;
68192;SDS011;55012;47.562;18.414;2024-01-27T05:33:43;2.92;;;1.35;;
68192;SDS011;55012;47.562;18.414;2024-01-27T05:36:08;2.60;;;1.40;;
68192;SDS011;55012;47.562;18.414;2024-01-27T05:38:34;2.90;;;1.23;;
68192;SDS011;55012;47.562;18.414;2024-01-27T05:41:02;6.20;;;1.50;;
68192;SDS011;55012;47.562;18.414;2024-01-27T05:43:28;2.65;;;1.40;;
68192;SDS011;55012;47.562;18.414;2024-01-27T05:45:53;5.15;;;1.40;;
68192;SDS011;55012;47.562;18.414;2024-01-27T05:48:19;2.85;;;1.20;;
68192;SDS011;55012;47.562;18.414;2024-01-27T05:50:54;3.85;;;1.33;;
68192;SDS011;55012;47.562;18.414;2024-01-27T05:53:21;2.22;;;1.20;;
68192;SDS011;55012;47.562;18.414;2024-01-27T05:55:47;3.20;;;1.50;;
68192;SDS011;55012;47.562;18.414;2024-01-27T05:58:12;3.13;;;1.45;;
68192;SDS011;55012;47.562;18.414;2024-01-27T06:00:37;6.95;;;1.73;;
68192;SDS011;55012;47.562;18.414;2024-01-27T06:03:03;4.35;;;1.70;;
68192;SDS011;55012;47.562;18.414;2024-01-27T06:05:28;2.22;;;1.17;;
68192;SDS011;55012;47.562;18.414;2024-01-27T06:07:54;3.08;;;1.30;;
68192;SDS011;55012;47.562;18.414;2024-01-27T06:10:19;2.95;;;1.52;;
68192;SDS011;55012;47.562;18.414;2024-01-27T06:12:45;3.45;;;1.83;;
68192;SDS011;55012;47.562;18.414;2024-01-27T06:15:10;3.45;;;1.55;;
68192;SDS011;55012;47.562;18.414;2024-01-27T06:17:36;4.57;;;1.42;;
68192;SDS011;55012;47.562;18.414;2024-01-27T06:20:01;6.80;;;1.60;;
68192;SDS011;55012;47.562;18.414;2024-01-27T06:22:26;6.03;;;1.35;;
68192;SDS011;55012;47.562;18.414;2024-01-27T06:24:52;5.85;;;1.50;;
68192;SDS011;55012;47.562;18.414;2024-01-27T06:27:17;5.22;;;1.70;;
68192;SDS011;55012;47.562;18.414;2024-01-27T06:29:42;3.63;;;1.45;;
68192;SDS011;55012;47.562;18.414;2024-01-27T06:32:09;5.78;;;1.42;;
68192;SDS011;55012;47.562;18.414;2024-01-27T06:34:34;5.78;;;1.60;;
68192;SDS011;55012;47.562;18.414;2024-01-27T06:37:00;5.07;;;1.67;;
68192;SDS011;55012;47.562;18.414;2024-01-27T06:39:26;5.72;;;1.83;;
68192;SDS011;55012;47.562;18.414;2024-01-27T06:41:51;5.72;;;2.15;;
68192;SDS011;55012;47.562;18.414;2024-01-27T06:44:17;4.72;;;2.22;;
68192;SDS011;55012;47.562;18.414;2024-01-27T06:46:42;6.63;;;2.22;;
68192;SDS011;55012;47.562;18.414;2024-01-27T06:49:09;5.00;;;2.00;;
68192;SDS011;55012;47.562;18.414;2024-01-27T06:51:35;4.97;;;2.17;;
68192;SDS011;55012;47.562;18.414;2024-01-27T06:54:00;5.25;;;2.00;;
68192;SDS011;55012;47.562;18.414;2024-01-27T06:56:25;6.45;;;2.40;;
68192;SDS011;55012;47.562;18.414;2024-01-27T06:58:51;5.78;;;2.30;;
68192;SDS011;55012;47.562;18.414;2024-01-27T07:01:16;4.45;;;1.90;;
68192;SDS011;55012;47.562;18.414;2024-01-27T07:03:41;5.80;;;2.08;;
68192;SDS011;55012;47.562;18.414;2024-01-27T07:06:09;6.88;;;2.28;;
68192;SDS011;55012;47.562;18.414;2024-01-27T07:08:34;4.85;;;2.10;;
68192;SDS011;55012;47.562;18.414;2024-01-27T07:11:00;6.93;;;2.72;;
68192;SDS011;55012;47.562;18.414;2024-01-27T07:13:25;3.90;;;1.60;;
68192;SDS011;55012;47.562;18.414;2024-01-27T07:15:54;7.70;;;2.03;;
68192;SDS011;55012;47.562;18.414;2024-01-27T07:18:19;6.07;;;1.90;;
68192;SDS011;55012;47.562;18.414;2024-01-27T07:20:44;4.80;;;1.80;;
68192;SDS011;55012;47.562;18.414;2024-01-27T07:23:10;5.47;;;1.63;;
68192;SDS011;55012;47.562;18.414;2024-01-27T07:25:35;4.00;;;1.50;;
68192;SDS011;55012;47.562;18.414;2024-01-27T07:28:00;5.35;;;1.77;;
68192;SDS011;55012;47.562;18.414;2024-01-27T07:30:26;3.03;;;1.30;;
68192;SDS011;55012;47.562;18.414;2024-01-27T07:32:51;4.35;;;1.40;;
68192;SDS011;55012;47.562;18.414;2024-01-27T07:35:16;5.40;;;2.33;;
68192;SDS011;55012;47.562;18.414;2024-01-27T07:37:42;4.25;;;1.60;;
68192;SDS011;55012;47.562;18.414;2024-01-27T07:40:08;6.03;;;2.30;;
68192;SDS011;55012;47.562;18.414;2024-01-27T07:42:34;4.93;;;2.17;;
68192;SDS011;55012;47.562;18.414;2024-01-27T07:44:59;4.35;;;1.70;;
68192;SDS011;55012;47.562;18.414;2024-01-27T07:47:25;3.88;;;1.42;;
68192;SDS011;55012;47.562;18.414;2024-01-27T07:49:50;4.65;;;1.80;;
68192;SDS011;55012;47.562;18.414;2024-01-27T07:52:15;5.15;;;1.80;;
68192;SDS011;55012;47.562;18.414;2024-01-27T07:54:41;3.72;;;1.77;;
68192;SDS011;55012;47.562;18.414;2024-01-27T07:57:06;14.27;;;4.68;;
68192;SDS011;55012;47.562;18.414;2024-01-27T07:59:32;5.57;;;2.55;;
68192;SDS011;55012;47.562;18.414;2024-01-27T08:01:58;6.43;;;3.22;;
68192;SDS011;55012;47.562;18.414;2024-01-27T08:04:24;12.00;;;5.38;;
68192;SDS011;55012;47.562;18.414;2024-01-27T08:06:50;7.85;;;3.17;;
68192;SDS011;55012;47.562;18.414;2024-01-27T08:09:16;5.68;;;2.47;;
68192;SDS011;55012;47.562;18.414;2024-01-27T08:11:42;6.15;;;2.20;;
68192;SDS011;55012;47.562;18.414;2024-01-27T08:14:08;5.15;;;1.58;;
68192;SDS011;55012;47.562;18.414;2024-01-27T08:16:34;2.45;;;1.30;;
68192;SDS011;55012;47.562;18.414;2024-01-27T08:19:00;5.80;;;1.92;;
68192;SDS011;55012;47.562;18.414;2024-01-27T08:21:25;6.45;;;2.08;;
68192;SDS011;55012;47.562;18.414;2024-01-27T08:23:50;5.63;;;2.10;;
68192;SDS011;55012;47.562;18.414;2024-01-27T08:26:16;3.13;;;1.65;;
68192;SDS011;55012;47.562;18.414;2024-01-27T08:28:41;3.42;;;1.50;;
68192;SDS011;55012;47.562;18.414;2024-01-27T08:31:06;5.53;;;1.85;;
68192;SDS011;55012;47.562;18.414;2024-01-27T08:33:32;3.83;;;1.77;;
68192;SDS011;55012;47.562;18.414;2024-01-27T08:35:57;4.60;;;1.75;;
68192;SDS011;55012;47.562;18.414;2024-01-27T08:38:22;4.10;;;1.45;;
68192;SDS011;55012;47.562;18.414;2024-01-27T08:40:48;3.13;;;1.65;;
68192;SDS011;55012;47.562;18.414;2024-01-27T08:43:13;5.07;;;1.42;;
68192;SDS011;55012;47.562;18.414;2024-01-27T08:45:39;4.25;;;1.70;;
68192;SDS011;55012;47.562;18.414;2024-01-27T08:48:05;5.75;;;2.10;;
68192;SDS011;55012;47.562;18.414;2024-01-27T08:50:30;4.30;;;1.48;;
68192;SDS011;55012;47.562;18.414;2024-01-27T08:52:56;3.58;;;1.50;;
68192;SDS011;55012;47.562;18.414;2024-01-27T08:55:21;3.90;;;1.70;;
68192;SDS011;55012;47.562;18.414;2024-01-27T08:57:49;7.32;;;1.48;;
68192;SDS011;55012;47.562;18.414;2024-01-27T09:00:14;2.97;;;1.17;;
68192;SDS011;55012;47.562;18.414;2024-01-27T09:02:41;4.82;;;1.48;;
68192;SDS011;55012;47.562;18.414;2024-01-27T09:05:07;3.05;;;1.20;;
68192;SDS011;55012;47.562;18.414;2024-01-27T09:07:33;5.95;;;1.35;;
68192;SDS011;55012;47.562;18.414;2024-01-27T09:09:59;3.38;;;1.23;;
68192;SDS011;55012;47.562;18.414;2024-01-27T09:12:24;6.68;;;1.38;;
68192;SDS011;55012;47.562;18.414;2024-01-27T09:14:50;6.43;;;1.48;;
68192;SDS011;55012;47.562;18.414;2024-01-27T09:17:15;4.78;;;1.45;;
68192;SDS011;55012;47.562;18.414;2024-01-27T09:19:40;2.67;;;1.38;;
68192;SDS011;55012;47.562;18.414;2024-01-27T09:22:07;4.50;;;1.30;;
68192;SDS011;55012;47.562;18.414;2024-01-27T09:24:32;2.83;;;1.60;;
68192;SDS011;55012;47.562;18.414;2024-01-27T09:26:58;6.25;;;1.35;;
68192;SDS011;55012;47.562;18.414;2024-01-27T09:29:23;4.90;;;1.42;;
68192;SDS011;55012;47.562;18.414;2024-01-27T09:31:48;3.30;;;1.50;;
68192;SDS011;55012;47.562;18.414;2024-01-27T09:34:14;4.90;;;1.90;;
68192;SDS011;55012;47.562;18.414;2024-01-27T09:36:39;3.88;;;1.60;;
68192;SDS011;55012;47.562;18.414;2024-01-27T09:39:04;7.43;;;1.90;;
68192;SDS011;55012;47.562;18.414;2024-01-27T09:41:30;4.95;;;1.60;;
68192;SDS011;55012;47.562;18.414;2024-01-27T09:44:00;4.88;;;1.48;;
68192;SDS011;55012;47.562;18.414;2024-01-27T09:46:28;3.03;;;1.30;;
68192;SDS011;55012;47.562;18.414;2024-01-27T09:48:54;3.63;;;1.50;;
68192;SDS011;55012;47.562;18.414;2024-01-27T09:51:20;5.15;;;1.10;;
68192;SDS011;55012;47.562;18.414;2024-01-27T09:53:46;2.63;;;1.17;;
68192;SDS011;55012;47.562;18.414;2024-01-27T09:56:12;3.90;;;1.20;;
68192;SDS011;55012;47.562;18.414;2024-01-27T09:58:43;3.90;;;1.48;;
68192;SDS011;55012;47.562;18.414;2024-01-27T10:01:09;5.00;;;1.48;;
68192;SDS011;55012;47.562;18.414;2024-01-27T10:03:35;5.68;;;1.35;;
68192;SDS011;55012;47.562;18.414;2024-01-27T10:06:04;6.43;;;1.45;;
68192;SDS011;55012;47.562;18.414;2024-01-27T10:08:33;5.05;;;1.50;;
68192;SDS011;55012;47.562;18.414;2024-01-27T10:10:59;3.90;;;1.23;;
68192;SDS011;55012;47.562;18.414;2024-01-27T10:13:24;6.50;;;1.58;;
68192;SDS011;55012;47.562;18.414;2024-01-27T10:18:47;5.82;;;1.83;;
68192;SDS011;55012;47.562;18.414;2024-01-27T10:21:16;4.07;;;1.70;;
68192;SDS011;55012;47.562;18.414;2024-01-27T10:23:43;4.72;;;1.48;;
68192;SDS011;55012;47.562;18.414;2024-01-27T10:26:09;3.90;;;1.25;;
68192;SDS011;55012;47.562;18.414;2024-01-27T10:28:34;6.68;;;1.70;;
68192;SDS011;55012;47.562;18.414;2024-01-27T10:31:12;4.22;;;1.50;;
68192;SDS011;55012;47.562;18.414;2024-01-27T10:33:38;7.20;;;1.85;;
68192;SDS011;55012;47.562;18.414;2024-01-27T10:36:04;5.25;;;1.42;;
68192;SDS011;55012;47.562;18.414;2024-01-27T10:38:34;3.33;;;1.63;;
68192;SDS011;55012;47.562;18.414;2024-01-27T10:41:06;3.25;;;1.35;;
68192;SDS011;55012;47.562;18.414;2024-01-27T10:43:35;3.75;;;1.55;;
68192;SDS011;55012;47.562;18.414;2024-01-27T10:46:02;3.75;;;1.83;;
68192;SDS011;55012;47.562;18.414;2024-01-27T10:48:31;5.25;;;1.98;;
68192;SDS011;55012;47.562;18.414;2024-01-27T10:50:58;2.92;;;1.38;;
68192;SDS011;55012;47.562;18.414;2024-01-27T10:53:28;4.65;;;1.42;;
68192;SDS011;55012;47.562;18.414;2024-01-27T10:55:57;5.45;;;1.73;;
68192;SDS011;55012;47.562;18.414;2024-01-27T10:58:23;4.07;;;1.40;;
68192;SDS011;55012;47.562;18.414;2024-01-27T11:00:50;6.68;;;2.00;;
68192;SDS011;55012;47.562;18.414;2024-01-27T11:03:15;4.70;;;1.80;;
68192;SDS011;55012;47.562;18.414;2024-01-27T11:05:43;8.27;;;2.00;;
68192;SDS011;55012;47.562;18.414;2024-01-27T11:08:12;4.40;;;1.70;;
68192;SDS011;55012;47.562;18.414;2024-01-27T11:10:38;5.25;;;1.95;;
68192;SDS011;55012;47.562;18.414;2024-01-27T11:13:04;11.73;;;3.60;;
68192;SDS011;55012;47.562;18.414;2024-01-27T11:15:30;4.38;;;2.08;;
68192;SDS011;55012;47.562;18.414;2024-01-27T11:17:57;5.20;;;1.60;;
68192;SDS011;55012;47.562;18.414;2024-01-27T11:20:27;3.20;;;1.52;;
68192;SDS011;55012;47.562;18.414;2024-01-27T11:22:52;5.05;;;1.90;;
68192;SDS011;55012;47.562;18.414;2024-01-27T11:25:19;5.25;;;1.75;;
68192;SDS011;55012;47.562;18.414;2024-01-27T11:27:45;3.55;;;1.85;;
68192;SDS011;55012;47.562;18.414;2024-01-27T11:30:30;5.68;;;1.63;;
68192;SDS011;55012;47.562;18.414;2024-01-27T11:33:00;8.82;;;2.05;;
68192;SDS011;55012;47.562;18.414;2024-01-27T11:35:26;4.85;;;2.05;;
68192;SDS011;55012;47.562;18.414;2024-01-27T11:37:52;4.25;;;2.00;;
68192;SDS011;55012;47.562;18.414;2024-01-27T11:40:17;5.72;;;1.63;;
68192;SDS011;55012;47.562;18.414;2024-01-27T11:42:43;6.63;;;2.22;;
68192;SDS011;55012;47.562;18.414;2024-01-27T11:47:43;6.43;;;2.20;;
68192;SDS011;55012;47.562;18.414;2024-01-27T11:50:08;7.07;;;2.20;;
68192;SDS011;55012;47.562;18.414;2024-01-27T11:52:34;5.63;;;2.00;;
68192;SDS011;55012;47.562;18.414;2024-01-27T11:55:00;6.25;;;1.95;;
68192;SDS011;55012;47.562;18.414;2024-01-27T11:57:25;6.03;;;1.80;;
68192;SDS011;55012;47.562;18.414;2024-01-27T11:59:52;5.25;;;1.67;;
68192;SDS011;55012;47.562;18.414;2024-01-27T12:02:18;4.30;;;1.30;;
68192;SDS011;55012;47.562;18.414;2024-01-27T12:04:44;6.97;;;1.48;;
68192;SDS011;55012;47.562;18.414;2024-01-27T12:07:10;5.47;;;1.52;;
68192;SDS011;55012;47.562;18.414;2024-01-27T12:09:36;4.32;;;1.50;;
68192;SDS011;55012;47.562;18.414;2024-01-27T12:12:03;4.85;;;1.33;;
68192;SDS011;55012;47.562;18.414;2024-01-27T12:14:39;5.80;;;1.63;;
68192;SDS011;55012;47.562;18.414;2024-01-27T12:17:05;5.35;;;1.58;;
68192;SDS011;55012;47.562;18.414;2024-01-27T12:19:34;4.13;;;1.58;;
68192;SDS011;55012;47.562;18.414;2024-01-27T12:21:59;6.50;;;1.67;;
68192;SDS011;55012;47.562;18.414;2024-01-27T12:24:24;7.63;;;2.40;;
68192;SDS011;55012;47.562;18.414;2024-01-27T12:26:50;6.55;;;1.92;;
68192;SDS011;55012;47.562;18.414;2024-01-27T12:29:15;5.47;;;1.83;;
68192;SDS011;55012;47.562;18.414;2024-01-27T12:31:41;7.95;;;2.60;;
68192;SDS011;55012;47.562;18.414;2024-01-27T12:34:06;6.32;;;1.75;;
68192;SDS011;55012;47.562;18.414;2024-01-27T12:36:32;7.70;;;2.30;;
68192;SDS011;55012;47.562;18.414;2024-01-27T12:39:00;3.28;;;1.60;;
68192;SDS011;55012;47.562;18.414;2024-01-27T12:41:29;4.63;;;1.63;;
68192;SDS011;55012;47.562;18.414;2024-01-27T12:43:55;6.20;;;1.88;;
68192;SDS011;55012;47.562;18.414;2024-01-27T12:46:20;6.32;;;2.17;;
68192;SDS011;55012;47.562;18.414;2024-01-27T12:48:46;5.82;;;2.25;;
68192;SDS011;55012;47.562;18.414;2024-01-27T12:51:12;7.03;;;1.92;;
68192;SDS011;55012;47.562;18.414;2024-01-27T12:53:39;5.18;;;1.63;;
68192;SDS011;55012;47.562;18.414;2024-01-27T12:56:07;3.75;;;1.65;;
68192;SDS011;55012;47.562;18.414;2024-01-27T12:58:33;4.88;;;1.90;;
68192;SDS011;55012;47.562;18.414;2024-01-27T13:00:58;5.88;;;1.75;;
68192;SDS011;55012;47.562;18.414;2024-01-27T13:03:24;5.10;;;1.83;;
68192;SDS011;55012;47.562;18.414;2024-01-27T13:05:49;5.75;;;2.08;;
68192;SDS011;55012;47.562;18.414;2024-01-27T13:08:15;5.03;;;1.80;;
68192;SDS011;55012;47.562;18.414;2024-01-27T13:10:40;6.50;;;1.73;;
68192;SDS011;55012;47.562;18.414;2024-01-27T13:13:05;5.60;;;1.50;;
68192;SDS011;55012;47.562;18.414;2024-01-27T13:15:31;7.32;;;2.00;;
68192;SDS011;55012;47.562;18.414;2024-01-27T13:17:56;7.07;;;1.50;;
68192;SDS011;55012;47.562;18.414;2024-01-27T13:20:22;7.70;;;1.70;;
68192;SDS011;55012;47.562;18.414;2024-01-27T13:22:47;5.32;;;1.50;;
68192;SDS011;55012;47.562;18.414;2024-01-27T13:25:13;3.65;;;1.40;;
68192;SDS011;55012;47.562;18.414;2024-01-27T13:27:39;6.40;;;2.10;;
68192;SDS011;55012;47.562;18.414;2024-01-27T13:30:04;6.30;;;1.98;;
68192;SDS011;55012;47.562;18.414;2024-01-27T13:32:30;5.35;;;1.80;;
68192;SDS011;55012;47.562;18.414;2024-01-27T13:34:55;7.18;;;2.28;;
68192;SDS011;55012;47.562;18.414;2024-01-27T13:37:21;6.63;;;2.17;;
68192;SDS011;55012;47.562;18.414;2024-01-27T13:39:47;7.85;;;1.90;;
68192;SDS011;55012;47.562;18.414;2024-01-27T13:42:12;5.90;;;1.85;;
68192;SDS011;55012;47.562;18.414;2024-01-27T13:44:38;6.95;;;1.98;;
68192;SDS011;55012;47.562;18.414;2024-01-27T13:47:04;8.52;;;2.40;;
68192;SDS011;55012;47.562;18.414;2024-01-27T13:49:30;5.97;;;2.88;;
68192;SDS011;55012;47.562;18.414;2024-01-27T13:51:57;4.78;;;1.77;;
68192;SDS011;55012;47.562;18.414;2024-01-27T13:54:22;7.05;;;2.03;;
68192;SDS011;55012;47.562;18.414;2024-01-27T13:56:47;5.15;;;1.90;;
68192;SDS011;55012;47.562;18.414;2024-01-27T13:59:13;7.28;;;1.95;;
68192;SDS011;55012;47.562;18.414;2024-01-27T14:01:38;5.85;;;2.10;;
68192;SDS011;55012;47.562;18.414;2024-01-27T14:04:04;5.88;;;2.03;;
68192;SDS011;55012;47.562;18.414;2024-01-27T14:06:29;5.85;;;1.77;;
68192;SDS011;55012;47.562;18.414;2024-01-27T14:08:54;6.75;;;2.00;;
68192;SDS011;55012;47.562;18.414;2024-01-27T14:11:20;7.60;;;2.58;;
68192;SDS011;55012;47.562;18.414;2024-01-27T14:13:47;8.30;;;2.83;;
68192;SDS011;55012;47.562;18.414;2024-01-27T14:16:12;6.35;;;1.80;;
68192;SDS011;55012;47.562;18.414;2024-01-27T14:18:37;5.97;;;2.00;;
68192;SDS011;55012;47.562;18.414;2024-01-27T14:21:03;8.05;;;1.80;;
68192;SDS011;55012;47.562;18.414;2024-01-27T14:23:28;6.93;;;1.92;;
68192;SDS011;55012;47.562;18.414;2024-01-27T14:25:54;6.03;;;1.48;;
68192;SDS011;55012;47.562;18.414;2024-01-27T14:28:19;8.05;;;1.95;;
68192;SDS011;55012;47.562;18.414;2024-01-27T14:30:45;5.55;;;2.20;;